sensor_id;sensor_type;location;lat;lon;timestamp;temperature;humidity
55269;DHT22;41131;42.990;21.954;2022-11-20T00:01:23;332.90;2329.60
55269;DHT22;41131;42.990;21.954;2022-11-20T00:03:50;333.00;2329.60
55269;DHT22;41131;42.990;21.954;2022-11-20T00:50:28;333.70;2329.60
55269;DHT22;41131;42.990;21.954;2022-11-20T00:52:54;333.40;2329.60
55269;DHT22;41131;42.990;21.954;2022-11-20T00:55:19;333.30;2329.60
55269;DHT22;41131;42.990;21.954;2022-11-20T00:57:45;333.40;2329.60
55269;DHT22;41131;42.990;21.954;2022-11-20T01:00:11;333.30;2329.60
55269;DHT22;41131;42.990;21.954;2022-11-20T01:02:36;333.30;2329.60
55269;DHT22;41131;42.990;21.954;2022-11-20T01:05:02;333.20;2329.60
55269;DHT22;41131;42.990;21.954;2022-11-20T01:07:28;333.20;2329.60
55269;DHT22;41131;42.990;21.954;2022-11-20T01:09:54;333.00;2329.60
55269;DHT22;41131;42.990;21.954;2022-11-20T01:12:19;333.10;2329.60
55269;DHT22;41131;42.990;21.954;2022-11-20T01:14:47;333.10;2329.60
55269;DHT22;41131;42.990;21.954;2022-11-20T01:17:12;333.00;2329.60
55269;DHT22;41131;42.990;21.954;2022-11-20T01:19:38;333.10;2329.60
55269;DHT22;41131;42.990;21.954;2022-11-20T01:22:04;333.20;2329.60
55269;DHT22;41131;42.990;21.954;2022-11-20T01:24:29;333.10;2329.60
55269;DHT22;41131;42.990;21.954;2022-11-20T01:26:55;333.00;2329.60
55269;DHT22;41131;42.990;21.954;2022-11-20T01:29:24;332.90;2329.60
55269;DHT22;41131;42.990;21.954;2022-11-20T01:31:50;332.90;2329.60
55269;DHT22;41131;42.990;21.954;2022-11-20T01:34:18;308.10;2304.00
55269;DHT22;41131;42.990;21.954;2022-11-20T01:36:45;332.80;2329.60
55269;DHT22;41131;42.990;21.954;2022-11-20T01:39:25;308.10;2304.00
55269;DHT22;41131;42.990;21.954;2022-11-20T01:41:52;308.10;2304.00
55269;DHT22;41131;42.990;21.954;2022-11-20T01:44:56;308.10;2304.00
55269;DHT22;41131;42.990;21.954;2022-11-20T01:47:51;308.00;2304.00
55269;DHT22;41131;42.990;21.954;2022-11-20T01:53:07;308.10;2304.00
55269;DHT22;41131;42.990;21.954;2022-11-20T01:55:41;308.10;2304.00
55269;DHT22;41131;42.990;21.954;2022-11-20T01:58:08;332.80;2329.60
55269;DHT22;41131;42.990;21.954;2022-11-20T02:00:35;332.90;2329.60
55269;DHT22;41131;42.990;21.954;2022-11-20T02:03:05;308.10;2304.00
55269;DHT22;41131;42.990;21.954;2022-11-20T02:05:35;332.80;2329.60
55269;DHT22;41131;42.990;21.954;2022-11-20T02:08:03;332.80;2329.60
55269;DHT22;41131;42.990;21.954;2022-11-20T02:10:30;332.90;2329.60
55269;DHT22;41131;42.990;21.954;2022-11-20T02:12:56;332.80;2329.60
55269;DHT22;41131;42.990;21.954;2022-11-20T02:15:41;332.90;2329.60
55269;DHT22;41131;42.990;21.954;2022-11-20T02:18:07;332.90;2329.60
55269;DHT22;41131;42.990;21.954;2022-11-20T02:20:33;333.00;2329.60
55269;DHT22;41131;42.990;21.954;2022-11-20T02:23:02;333.00;2329.60
55269;DHT22;41131;42.990;21.954;2022-11-20T02:25:32;333.00;2329.60
55269;DHT22;41131;42.990;21.954;2022-11-20T02:27:58;333.10;2329.60
55269;DHT22;41131;42.990;21.954;2022-11-20T02:30:24;333.10;2329.60
55269;DHT22;41131;42.990;21.954;2022-11-20T02:32:50;333.20;2329.60
55269;DHT22;41131;42.990;21.954;2022-11-20T02:37:47;333.20;2329.60
55269;DHT22;41131;42.990;21.954;2022-11-20T02:40:14;332.80;2329.60
55269;DHT22;41131;42.990;21.954;2022-11-20T02:42:40;308.00;2304.00
55269;DHT22;41131;42.990;21.954;2022-11-20T02:45:10;308.10;2304.00
55269;DHT22;41131;42.990;21.954;2022-11-20T02:47:36;333.00;2329.60
55269;DHT22;41131;42.990;21.954;2022-11-20T02:50:03;332.80;2329.60
55269;DHT22;41131;42.990;21.954;2022-11-20T02:52:30;332.80;2329.60
55269;DHT22;41131;42.990;21.954;2022-11-20T02:54:56;332.90;2329.60
55269;DHT22;41131;42.990;21.954;2022-11-20T02:57:21;332.90;2329.60
55269;DHT22;41131;42.990;21.954;2022-11-20T03:48:34;332.80;2329.60
55269;DHT22;41131;42.990;21.954;2022-11-20T03:51:19;308.10;2304.00
55269;DHT22;41131;42.990;21.954;2022-11-20T03:53:47;332.80;2329.60
55269;DHT22;41131;42.990;21.954;2022-11-20T03:56:14;332.80;2329.60
55269;DHT22;41131;42.990;21.954;2022-11-20T03:58:41;308.10;2304.00
55269;DHT22;41131;42.990;21.954;2022-11-20T04:01:12;307.70;2304.00
55269;DHT22;41131;42.990;21.954;2022-11-20T04:03:39;307.40;2304.00
55269;DHT22;41131;42.990;21.954;2022-11-20T04:06:07;307.60;2304.00
55269;DHT22;41131;42.990;21.954;2022-11-20T04:08:34;307.80;2304.00
55269;DHT22;41131;42.990;21.954;2022-11-20T04:11:14;307.70;2304.00
55269;DHT22;41131;42.990;21.954;2022-11-20T04:13:41;307.80;2304.00
55269;DHT22;41131;42.990;21.954;2022-11-20T04:16:09;307.90;2304.00
55269;DHT22;41131;42.990;21.954;2022-11-20T04:18:35;308.00;2304.00
55269;DHT22;41131;42.990;21.954;2022-11-20T04:21:02;308.10;2304.00
55269;DHT22;41131;42.990;21.954;2022-11-20T04:23:28;308.10;2304.00
55269;DHT22;41131;42.990;21.954;2022-11-20T04:25:53;332.80;2329.60
55269;DHT22;41131;42.990;21.954;2022-11-20T04:28:19;332.90;2329.60
55269;DHT22;41131;42.990;21.954;2022-11-20T04:30:45;332.90;2329.60
55269;DHT22;41131;42.990;21.954;2022-11-20T04:33:11;333.00;2329.60
55269;DHT22;41131;42.990;21.954;2022-11-20T04:35:37;333.10;2329.60
55269;DHT22;41131;42.990;21.954;2022-11-20T04:38:03;333.10;2329.60
55269;DHT22;41131;42.990;21.954;2022-11-20T04:40:30;333.00;2329.60
55269;DHT22;41131;42.990;21.954;2022-11-20T04:42:56;333.10;2329.60
55269;DHT22;41131;42.990;21.954;2022-11-20T04:45:22;333.00;2329.60
55269;DHT22;41131;42.990;21.954;2022-11-20T04:47:48;333.10;2329.60
55269;DHT22;41131;42.990;21.954;2022-11-20T04:50:14;333.10;2329.60
55269;DHT22;41131;42.990;21.954;2022-11-20T04:52:40;333.20;2329.60
55269;DHT22;41131;42.990;21.954;2022-11-20T04:55:06;333.30;2329.60
55269;DHT22;41131;42.990;21.954;2022-11-20T04:57:32;333.30;2329.60
55269;DHT22;41131;42.990;21.954;2022-11-20T04:59:57;333.30;2329.60
55269;DHT22;41131;42.990;21.954;2022-11-20T05:02:23;333.30;2329.60
55269;DHT22;41131;42.990;21.954;2022-11-20T05:04:49;333.30;2329.60
55269;DHT22;41131;42.990;21.954;2022-11-20T05:07:15;333.30;2329.60
55269;DHT22;41131;42.990;21.954;2022-11-20T05:09:40;333.30;2329.60
55269;DHT22;41131;42.990;21.954;2022-11-20T05:12:08;333.20;2329.60
55269;DHT22;41131;42.990;21.954;2022-11-20T05:14:34;333.30;2329.60
55269;DHT22;41131;42.990;21.954;2022-11-20T05:16:59;333.30;2329.60
55269;DHT22;41131;42.990;21.954;2022-11-20T05:19:25;333.40;2329.60
55269;DHT22;41131;42.990;21.954;2022-11-20T05:21:51;333.40;2329.60
55269;DHT22;41131;42.990;21.954;2022-11-20T05:24:17;333.40;2329.60
55269;DHT22;41131;42.990;21.954;2022-11-20T05:26:42;333.20;2329.60
55269;DHT22;41131;42.990;21.954;2022-11-20T05:29:13;333.30;2329.60
55269;DHT22;41131;42.990;21.954;2022-11-20T05:31:40;333.20;2329.60
55269;DHT22;41131;42.990;21.954;2022-11-20T05:34:07;333.20;2329.60
55269;DHT22;41131;42.990;21.954;2022-11-20T05:36:33;333.30;2329.60
55269;DHT22;41131;42.990;21.954;2022-11-20T05:38:58;333.40;2329.60
55269;DHT22;41131;42.990;21.954;2022-11-20T05:41:24;333.40;2329.60
55269;DHT22;41131;42.990;21.954;2022-11-20T05:43:51;333.20;2329.60
55269;DHT22;41131;42.990;21.954;2022-11-20T05:46:20;333.20;2329.60
55269;DHT22;41131;42.990;21.954;2022-11-20T05:48:46;333.20;2329.60
55269;DHT22;41131;42.990;21.954;2022-11-20T05:51:15;333.40;2329.60
55269;DHT22;41131;42.990;21.954;2022-11-20T05:53:42;333.40;2329.60
55269;DHT22;41131;42.990;21.954;2022-11-20T05:56:13;333.30;2329.60
55269;DHT22;41131;42.990;21.954;2022-11-20T05:58:40;333.30;2329.60
55269;DHT22;41131;42.990;21.954;2022-11-20T06:01:07;333.20;2329.60
55269;DHT22;41131;42.990;21.954;2022-11-20T06:03:33;333.20;2329.60
55269;DHT22;41131;42.990;21.954;2022-11-20T06:06:00;333.20;2329.60
55269;DHT22;41131;42.990;21.954;2022-11-20T06:08:26;333.30;2329.60
55269;DHT22;41131;42.990;21.954;2022-11-20T06:10:52;333.40;2329.60
55269;DHT22;41131;42.990;21.954;2022-11-20T06:13:17;333.40;2329.60
55269;DHT22;41131;42.990;21.954;2022-11-20T06:15:51;333.40;2329.60
55269;DHT22;41131;42.990;21.954;2022-11-20T06:18:18;333.40;2329.60
55269;DHT22;41131;42.990;21.954;2022-11-20T06:20:44;333.40;2329.60
55269;DHT22;41131;42.990;21.954;2022-11-20T06:23:10;333.40;2329.60
55269;DHT22;41131;42.990;21.954;2022-11-20T06:25:40;333.50;2329.60
55269;DHT22;41131;42.990;21.954;2022-11-20T06:28:07;333.50;2329.60
55269;DHT22;41131;42.990;21.954;2022-11-20T06:30:33;333.60;2329.60
55269;DHT22;41131;42.990;21.954;2022-11-20T06:32:58;333.60;2329.60
55269;DHT22;41131;42.990;21.954;2022-11-20T06:35:24;333.60;2329.60
55269;DHT22;41131;42.990;21.954;2022-11-20T06:37:50;333.60;2329.60
55269;DHT22;41131;42.990;21.954;2022-11-20T06:40:16;333.60;2329.60
55269;DHT22;41131;42.990;21.954;2022-11-20T06:42:42;333.60;2329.60
55269;DHT22;41131;42.990;21.954;2022-11-20T06:45:08;333.60;2329.60
55269;DHT22;41131;42.990;21.954;2022-11-20T06:47:34;333.70;2329.60
55269;DHT22;41131;42.990;21.954;2022-11-20T06:50:00;333.60;2329.60
55269;DHT22;41131;42.990;21.954;2022-11-20T06:52:25;333.70;2329.60
55269;DHT22;41131;42.990;21.954;2022-11-20T06:54:51;333.70;2329.60
55269;DHT22;41131;42.990;21.954;2022-11-20T06:57:17;333.60;2329.60
55269;DHT22;41131;42.990;21.954;2022-11-20T06:59:43;333.60;2329.60
55269;DHT22;41131;42.990;21.954;2022-11-20T07:02:11;333.50;2329.60
55269;DHT22;41131;42.990;21.954;2022-11-20T07:04:38;333.50;2329.60
55269;DHT22;41131;42.990;21.954;2022-11-20T07:07:04;333.30;2329.60
55269;DHT22;41131;42.990;21.954;2022-11-20T07:09:31;333.40;2329.60
55269;DHT22;41131;42.990;21.954;2022-11-20T07:11:57;333.30;2329.60
55269;DHT22;41131;42.990;21.954;2022-11-20T07:14:23;333.20;2329.60
55269;DHT22;41131;42.990;21.954;2022-11-20T07:16:48;333.40;2329.60
55269;DHT22;41131;42.990;21.954;2022-11-20T07:19:14;333.50;2329.60
55269;DHT22;41131;42.990;21.954;2022-11-20T07:21:40;333.50;2329.60
55269;DHT22;41131;42.990;21.954;2022-11-20T07:24:05;333.50;2329.60
55269;DHT22;41131;42.990;21.954;2022-11-20T07:26:31;333.60;2329.60
55269;DHT22;41131;42.990;21.954;2022-11-20T07:28:57;333.70;2329.60
55269;DHT22;41131;42.990;21.954;2022-11-20T07:31:23;358.40;2329.60
55269;DHT22;41131;42.990;21.954;2022-11-20T07:33:48;358.40;2329.60
55269;DHT22;41131;42.990;21.954;2022-11-20T07:36:14;358.50;2329.60
55269;DHT22;41131;42.990;21.954;2022-11-20T07:38:40;358.50;2329.60
55269;DHT22;41131;42.990;21.954;2022-11-20T07:41:05;358.50;2329.60
55269;DHT22;41131;42.990;21.954;2022-11-20T07:50:54;359.00;2329.60
55269;DHT22;41131;42.990;21.954;2022-11-20T07:53:20;359.10;2329.60
55269;DHT22;41131;42.990;21.954;2022-11-20T07:55:47;359.10;2329.60
55269;DHT22;41131;42.990;21.954;2022-11-20T07:58:13;359.00;2329.60
55269;DHT22;41131;42.990;21.954;2022-11-20T08:23:05;359.20;2329.60
55269;DHT22;41131;42.990;21.954;2022-11-20T08:25:32;359.00;2329.60
55269;DHT22;41131;42.990;21.954;2022-11-20T08:27:59;358.90;2329.60
55269;DHT22;41131;42.990;21.954;2022-11-20T08:30:25;358.90;2329.60
55269;DHT22;41131;42.990;21.954;2022-11-20T08:32:51;359.00;2329.60
55269;DHT22;41131;42.990;21.954;2022-11-20T08:35:16;359.00;2329.60
55269;DHT22;41131;42.990;21.954;2022-11-20T08:37:45;359.00;2329.60
55269;DHT22;41131;42.990;21.954;2022-11-20T08:40:11;358.80;2329.60
55269;DHT22;41131;42.990;21.954;2022-11-20T08:42:37;358.60;2329.60
55269;DHT22;41131;42.990;21.954;2022-11-20T08:45:03;333.70;2329.60
55269;DHT22;41131;42.990;21.954;2022-11-20T08:47:30;333.70;2329.60
55269;DHT22;41131;42.990;21.954;2022-11-20T08:49:55;333.70;2329.60
55269;DHT22;41131;42.990;21.954;2022-11-20T08:52:21;333.60;2329.60
55269;DHT22;41131;42.990;21.954;2022-11-20T08:54:47;333.60;2329.60
55269;DHT22;41131;42.990;21.954;2022-11-20T08:57:12;333.70;2329.60
55269;DHT22;41131;42.990;21.954;2022-11-20T08:59:38;333.70;2329.60
55269;DHT22;41131;42.990;21.954;2022-11-20T09:02:04;333.70;2329.60
55269;DHT22;41131;42.990;21.954;2022-11-20T09:04:30;333.60;2329.60
55269;DHT22;41131;42.990;21.954;2022-11-20T09:06:56;333.60;2329.60
55269;DHT22;41131;42.990;21.954;2022-11-20T09:11:48;333.70;2329.60
55269;DHT22;41131;42.990;21.954;2022-11-20T09:14:15;333.60;2329.60
55269;DHT22;41131;42.990;21.954;2022-11-20T09:16:40;333.60;2329.60
55269;DHT22;41131;42.990;21.954;2022-11-20T09:19:06;333.60;2329.60
55269;DHT22;41131;42.990;21.954;2022-11-20T09:21:32;333.70;2329.60
55269;DHT22;41131;42.990;21.954;2022-11-20T09:23:58;333.50;2329.60
55269;DHT22;41131;42.990;21.954;2022-11-20T09:26:23;333.50;2329.60
55269;DHT22;41131;42.990;21.954;2022-11-20T09:28:49;333.70;2329.60
55269;DHT22;41131;42.990;21.954;2022-11-20T09:31:22;358.50;2329.60
55269;DHT22;41131;42.990;21.954;2022-11-20T09:33:48;358.70;2329.60
55269;DHT22;41131;42.990;21.954;2022-11-20T09:36:14;358.80;2329.60
55269;DHT22;41131;42.990;21.954;2022-11-20T09:38:39;358.80;2329.60
55269;DHT22;41131;42.990;21.954;2022-11-20T09:41:06;358.80;2329.60
55269;DHT22;41131;42.990;21.954;2022-11-20T09:43:58;358.80;2329.60
55269;DHT22;41131;42.990;21.954;2022-11-20T09:46:35;358.70;2329.60
55269;DHT22;41131;42.990;21.954;2022-11-20T09:54:16;358.70;2329.60
55269;DHT22;41131;42.990;21.954;2022-11-20T09:56:46;358.70;2329.60
55269;DHT22;41131;42.990;21.954;2022-11-20T10:05:03;358.70;2329.60
55269;DHT22;41131;42.990;21.954;2022-11-20T10:07:39;358.80;2329.60
55269;DHT22;41131;42.990;21.954;2022-11-20T10:10:15;358.90;2329.60
55269;DHT22;41131;42.990;21.954;2022-11-20T10:21:36;359.00;2329.60
55269;DHT22;41131;42.990;21.954;2022-11-20T10:29:47;359.00;2329.60
55269;DHT22;41131;42.990;21.954;2022-11-20T10:32:19;359.00;2329.60
55269;DHT22;41131;42.990;21.954;2022-11-20T10:34:58;359.00;2329.60
55269;DHT22;41131;42.990;21.954;2022-11-20T10:37:26;359.00;2329.60
55269;DHT22;41131;42.990;21.954;2022-11-20T10:42:56;359.00;2329.60
55269;DHT22;41131;42.990;21.954;2022-11-20T10:48:01;358.90;2329.60
55269;DHT22;41131;42.990;21.954;2022-11-20T10:50:36;359.00;2329.60
55269;DHT22;41131;42.990;21.954;2022-11-20T10:56:00;359.10;2329.60
55269;DHT22;41131;42.990;21.954;2022-11-20T11:01:24;359.10;2329.60
55269;DHT22;41131;42.990;21.954;2022-11-20T11:03:52;359.20;2329.60
55269;DHT22;41131;42.990;21.954;2022-11-20T11:06:46;359.30;2329.60
55269;DHT22;41131;42.990;21.954;2022-11-20T11:09:19;384.10;2329.60
55269;DHT22;41131;42.990;21.954;2022-11-20T11:11:46;384.10;2329.60
55269;DHT22;41131;42.990;21.954;2022-11-20T11:14:14;384.00;2329.60
55269;DHT22;41131;42.990;21.954;2022-11-20T11:16:56;384.00;2329.60
55269;DHT22;41131;42.990;21.954;2022-11-20T11:37:11;384.80;2329.60
55269;DHT22;41131;42.990;21.954;2022-11-20T14:36:58;384.10;2329.60
55269;DHT22;41131;42.990;21.954;2022-11-20T14:41:58;384.00;2329.60
55269;DHT22;41131;42.990;21.954;2022-11-20T14:44:31;359.20;2329.60
55269;DHT22;41131;42.990;21.954;2022-11-20T14:47:00;359.10;2329.60
55269;DHT22;41131;42.990;21.954;2022-11-20T14:49:26;359.10;2329.60
55269;DHT22;41131;42.990;21.954;2022-11-20T14:52:02;359.00;2329.60
55269;DHT22;41131;42.990;21.954;2022-11-20T14:54:28;359.00;2329.60
55269;DHT22;41131;42.990;21.954;2022-11-20T14:56:59;358.90;2329.60
55269;DHT22;41131;42.990;21.954;2022-11-20T14:59:29;358.90;2329.60
55269;DHT22;41131;42.990;21.954;2022-11-20T15:02:12;358.80;2329.60
55269;DHT22;41131;42.990;21.954;2022-11-20T15:04:56;358.80;2329.60
55269;DHT22;41131;42.990;21.954;2022-11-20T15:07:24;358.70;2329.60
55269;DHT22;41131;42.990;21.954;2022-11-20T15:10:09;358.80;2329.60
55269;DHT22;41131;42.990;21.954;2022-11-20T15:12:40;358.70;2329.60
55269;DHT22;41131;42.990;21.954;2022-11-20T15:15:08;358.70;2329.60
55269;DHT22;41131;42.990;21.954;2022-11-20T15:17:37;358.60;2329.60
55269;DHT22;41131;42.990;21.954;2022-11-20T15:20:10;358.60;2329.60
55269;DHT22;41131;42.990;21.954;2022-11-20T15:22:37;358.60;2329.60
55269;DHT22;41131;42.990;21.954;2022-11-20T15:25:12;358.50;2329.60
55269;DHT22;41131;42.990;21.954;2022-11-20T15:27:38;358.60;2329.60
55269;DHT22;41131;42.990;21.954;2022-11-20T15:30:15;358.60;2329.60
55269;DHT22;41131;42.990;21.954;2022-11-20T15:32:43;358.50;2329.60
55269;DHT22;41131;42.990;21.954;2022-11-20T15:35:09;358.60;2329.60
55269;DHT22;41131;42.990;21.954;2022-11-20T15:37:38;358.60;2329.60
55269;DHT22;41131;42.990;21.954;2022-11-20T15:40:05;358.70;2329.60
55269;DHT22;41131;42.990;21.954;2022-11-20T15:42:31;358.70;2329.60
55269;DHT22;41131;42.990;21.954;2022-11-20T15:44:57;358.70;2329.60
55269;DHT22;41131;42.990;21.954;2022-11-20T15:47:28;358.70;2329.60
55269;DHT22;41131;42.990;21.954;2022-11-20T15:49:55;358.70;2329.60
55269;DHT22;41131;42.990;21.954;2022-11-20T15:52:21;358.80;2329.60
55269;DHT22;41131;42.990;21.954;2022-11-20T15:54:47;358.80;2329.60
55269;DHT22;41131;42.990;21.954;2022-11-20T15:57:13;358.80;2329.60
55269;DHT22;41131;42.990;21.954;2022-11-20T15:59:39;358.80;2329.60
55269;DHT22;41131;42.990;21.954;2022-11-20T16:02:12;358.80;2329.60
55269;DHT22;41131;42.990;21.954;2022-11-20T16:04:39;358.80;2329.60
55269;DHT22;41131;42.990;21.954;2022-11-20T16:07:05;358.80;2329.60
55269;DHT22;41131;42.990;21.954;2022-11-20T16:09:30;358.80;2329.60
55269;DHT22;41131;42.990;21.954;2022-11-20T16:11:56;358.80;2329.60
55269;DHT22;41131;42.990;21.954;2022-11-20T16:14:26;358.70;2329.60
55269;DHT22;41131;42.990;21.954;2022-11-20T16:17:10;358.80;2329.60
55269;DHT22;41131;42.990;21.954;2022-11-20T16:19:36;358.80;2329.60
55269;DHT22;41131;42.990;21.954;2022-11-20T16:22:02;358.80;2329.60
55269;DHT22;41131;42.990;21.954;2022-11-20T16:24:28;358.90;2329.60
55269;DHT22;41131;42.990;21.954;2022-11-20T16:26:54;359.00;2329.60
55269;DHT22;41131;42.990;21.954;2022-11-20T16:29:20;358.90;2329.60
55269;DHT22;41131;42.990;21.954;2022-11-20T16:31:46;359.00;2329.60
55269;DHT22;41131;42.990;21.954;2022-11-20T16:34:12;359.00;2329.60
55269;DHT22;41131;42.990;21.954;2022-11-20T16:36:41;358.90;2329.60
55269;DHT22;41131;42.990;21.954;2022-11-20T16:39:07;358.90;2329.60
55269;DHT22;41131;42.990;21.954;2022-11-20T16:41:33;358.90;2329.60
55269;DHT22;41131;42.990;21.954;2022-11-20T16:44:01;358.90;2329.60
55269;DHT22;41131;42.990;21.954;2022-11-20T16:46:29;359.00;2329.60
55269;DHT22;41131;42.990;21.954;2022-11-20T16:49:00;358.90;2329.60
55269;DHT22;41131;42.990;21.954;2022-11-20T16:51:27;358.80;2329.60
55269;DHT22;41131;42.990;21.954;2022-11-20T16:53:54;358.70;2329.60
55269;DHT22;41131;42.990;21.954;2022-11-20T16:56:25;358.70;2329.60
55269;DHT22;41131;42.990;21.954;2022-11-20T16:58:53;358.70;2329.60
55269;DHT22;41131;42.990;21.954;2022-11-20T17:01:20;358.70;2329.60
55269;DHT22;41131;42.990;21.954;2022-11-20T17:03:54;358.80;2329.60
55269;DHT22;41131;42.990;21.954;2022-11-20T17:06:23;358.80;2329.60
55269;DHT22;41131;42.990;21.954;2022-11-20T17:08:48;358.70;2329.60
55269;DHT22;41131;42.990;21.954;2022-11-20T17:11:17;358.70;2329.60
55269;DHT22;41131;42.990;21.954;2022-11-20T17:13:43;358.70;2329.60
55269;DHT22;41131;42.990;21.954;2022-11-20T17:16:11;358.80;2329.60
55269;DHT22;41131;42.990;21.954;2022-11-20T17:18:38;358.70;2329.60
55269;DHT22;41131;42.990;21.954;2022-11-20T17:21:05;358.60;2329.60
55269;DHT22;41131;42.990;21.954;2022-11-20T17:23:35;358.60;2329.60
55269;DHT22;41131;42.990;21.954;2022-11-20T17:26:09;358.50;2329.60
55269;DHT22;41131;42.990;21.954;2022-11-20T17:28:36;358.50;2329.60
55269;DHT22;41131;42.990;21.954;2022-11-20T17:31:05;358.50;2329.60
55269;DHT22;41131;42.990;21.954;2022-11-20T17:33:33;358.60;2329.60
55269;DHT22;41131;42.990;21.954;2022-11-20T17:35:59;358.60;2329.60
55269;DHT22;41131;42.990;21.954;2022-11-20T17:38:25;358.60;2329.60
55269;DHT22;41131;42.990;21.954;2022-11-20T17:40:51;358.60;2329.60
55269;DHT22;41131;42.990;21.954;2022-11-20T17:43:17;358.50;2329.60
55269;DHT22;41131;42.990;21.954;2022-11-20T17:45:43;358.50;2329.60
55269;DHT22;41131;42.990;21.954;2022-11-20T17:48:10;358.50;2329.60
55269;DHT22;41131;42.990;21.954;2022-11-20T17:50:36;358.60;2329.60
55269;DHT22;41131;42.990;21.954;2022-11-20T17:53:02;358.60;2329.60
55269;DHT22;41131;42.990;21.954;2022-11-20T17:55:27;358.60;2329.60
55269;DHT22;41131;42.990;21.954;2022-11-20T17:58:13;358.60;2329.60
55269;DHT22;41131;42.990;21.954;2022-11-20T18:00:39;358.60;2329.60
55269;DHT22;41131;42.990;21.954;2022-11-20T18:03:04;358.60;2329.60
55269;DHT22;41131;42.990;21.954;2022-11-20T18:05:30;358.50;2329.60
55269;DHT22;41131;42.990;21.954;2022-11-20T18:07:56;358.50;2329.60
55269;DHT22;41131;42.990;21.954;2022-11-20T18:10:23;358.50;2329.60
55269;DHT22;41131;42.990;21.954;2022-11-20T18:12:48;358.60;2329.60
55269;DHT22;41131;42.990;21.954;2022-11-20T18:15:14;358.60;2329.60
55269;DHT22;41131;42.990;21.954;2022-11-20T18:17:40;358.60;2329.60
55269;DHT22;41131;42.990;21.954;2022-11-20T18:20:06;358.60;2329.60
55269;DHT22;41131;42.990;21.954;2022-11-20T18:22:33;358.70;2329.60
55269;DHT22;41131;42.990;21.954;2022-11-20T18:24:59;358.60;2329.60
55269;DHT22;41131;42.990;21.954;2022-11-20T18:27:25;358.70;2329.60
55269;DHT22;41131;42.990;21.954;2022-11-20T18:29:50;358.80;2329.60
55269;DHT22;41131;42.990;21.954;2022-11-20T18:32:17;358.90;2329.60
55269;DHT22;41131;42.990;21.954;2022-11-20T18:34:43;358.80;2329.60
55269;DHT22;41131;42.990;21.954;2022-11-20T18:37:09;358.90;2329.60
55269;DHT22;41131;42.990;21.954;2022-11-20T18:39:39;358.90;2329.60
55269;DHT22;41131;42.990;21.954;2022-11-20T18:42:04;358.90;2329.60
55269;DHT22;41131;42.990;21.954;2022-11-20T18:44:53;359.00;2329.60
55269;DHT22;41131;42.990;21.954;2022-11-20T18:47:29;359.00;2329.60
55269;DHT22;41131;42.990;21.954;2022-11-20T18:50:00;358.90;2329.60
55269;DHT22;41131;42.990;21.954;2022-11-20T18:52:30;359.00;2329.60
55269;DHT22;41131;42.990;21.954;2022-11-20T18:54:58;358.90;2329.60
55269;DHT22;41131;42.990;21.954;2022-11-20T18:57:25;358.90;2329.60
55269;DHT22;41131;42.990;21.954;2022-11-20T18:59:55;358.90;2329.60
55269;DHT22;41131;42.990;21.954;2022-11-20T19:02:24;358.90;2329.60
55269;DHT22;41131;42.990;21.954;2022-11-20T19:04:50;358.90;2329.60
55269;DHT22;41131;42.990;21.954;2022-11-20T19:07:16;358.90;2329.60
55269;DHT22;41131;42.990;21.954;2022-11-20T19:09:49;359.00;2329.60
55269;DHT22;41131;42.990;21.954;2022-11-20T19:12:15;358.90;2329.60
55269;DHT22;41131;42.990;21.954;2022-11-20T19:14:42;359.00;2329.60
55269;DHT22;41131;42.990;21.954;2022-11-20T19:17:08;358.90;2329.60
55269;DHT22;41131;42.990;21.954;2022-11-20T19:19:35;359.00;2329.60
55269;DHT22;41131;42.990;21.954;2022-11-20T19:22:01;359.00;2329.60
55269;DHT22;41131;42.990;21.954;2022-11-20T19:24:27;359.00;2329.60
55269;DHT22;41131;42.990;21.954;2022-11-20T19:26:53;359.00;2329.60
55269;DHT22;41131;42.990;21.954;2022-11-20T19:29:21;359.00;2329.60
55269;DHT22;41131;42.990;21.954;2022-11-20T19:31:47;358.90;2329.60
55269;DHT22;41131;42.990;21.954;2022-11-20T19:34:13;358.90;2329.60
55269;DHT22;41131;42.990;21.954;2022-11-20T19:36:40;358.90;2329.60
55269;DHT22;41131;42.990;21.954;2022-11-20T19:39:07;359.00;2329.60
55269;DHT22;41131;42.990;21.954;2022-11-20T19:41:35;359.00;2329.60
55269;DHT22;41131;42.990;21.954;2022-11-20T19:46:29;359.00;2329.60
55269;DHT22;41131;42.990;21.954;2022-11-20T19:48:55;358.70;2329.60
55269;DHT22;41131;42.990;21.954;2022-11-20T19:51:26;358.40;2329.60
55269;DHT22;41131;42.990;21.954;2022-11-20T19:53:54;358.50;2329.60
55269;DHT22;41131;42.990;21.954;2022-11-20T19:56:20;358.60;2329.60
55269;DHT22;41131;42.990;21.954;2022-11-20T19:58:46;358.70;2329.60
55269;DHT22;41131;42.990;21.954;2022-11-20T20:01:16;358.80;2329.60
55269;DHT22;41131;42.990;21.954;2022-11-20T20:03:43;358.70;2329.60
55269;DHT22;41131;42.990;21.954;2022-11-20T20:06:14;358.80;2329.60
55269;DHT22;41131;42.990;21.954;2022-11-20T20:08:41;358.80;2329.60
55269;DHT22;41131;42.990;21.954;2022-11-20T20:11:16;358.90;2329.60
55269;DHT22;41131;42.990;21.954;2022-11-20T20:13:43;358.90;2329.60
55269;DHT22;41131;42.990;21.954;2022-11-20T20:16:14;358.40;2329.60
55269;DHT22;41131;42.990;21.954;2022-11-20T20:18:40;358.50;2329.60
55269;DHT22;41131;42.990;21.954;2022-11-20T20:21:11;358.50;2329.60
55269;DHT22;41131;42.990;21.954;2022-11-20T20:23:38;358.50;2329.60
55269;DHT22;41131;42.990;21.954;2022-11-20T20:26:06;358.50;2329.60
55269;DHT22;41131;42.990;21.954;2022-11-20T20:28:32;358.60;2329.60
55269;DHT22;41131;42.990;21.954;2022-11-20T20:31:15;358.60;2329.60
55269;DHT22;41131;42.990;21.954;2022-11-20T20:33:41;358.60;2329.60
55269;DHT22;41131;42.990;21.954;2022-11-20T20:36:09;358.50;2329.60
55269;DHT22;41131;42.990;21.954;2022-11-20T20:38:35;358.50;2329.60
55269;DHT22;41131;42.990;21.954;2022-11-20T20:41:02;358.40;2329.60
55269;DHT22;41131;42.990;21.954;2022-11-20T20:43:28;333.70;2329.60
55269;DHT22;41131;42.990;21.954;2022-11-20T20:45:54;333.50;2329.60
55269;DHT22;41131;42.990;21.954;2022-11-20T20:50:58;333.10;2329.60